Time;durP1;ratioP1;P1;durP2;ratioP2;P2;SDS_P1;SDS_P2;PMS_P1;PMS_P2;Temp;Humidity;BMP_temperature;BMP_pressure;BME280_temperature;BME280_humidity;BME280_pressure;Samples;Min_cycle;Max_cycle;Signal;HPM_P1;HPM_P2
2023/12/29 12:30:37;;;;;;;12.10;9.18;;;;;;;;;;6158054;23;20013;-86
2023/12/29 12:33:04;;;;;;;13.13;9.90;;;;;;;;;;6186141;23;20048;-89
2023/12/29 12:35:30;;;;;;;12.88;9.90;;;;;;;;;;6183922;23;20001;-85
2023/12/29 12:38:16;;;;;;;11.63;9.75;;;;;;;;;;6186276;23;20388;-85
2023/12/29 12:40:41;;;;;;;12.30;9.90;;;;;;;;;;6184487;23;20009;-87
2023/12/29 12:43:07;;;;;;;14.43;8.90;;;;;;;;;;6186241;23;20005;-87
2023/12/29 12:45:42;;;;;;;16.58;10.43;;;;;;;;;;6185653;23;20005;-86
2023/12/29 15:14:15;;;;;;;13.13;9.70;;;;;;;;;;6157638;23;20009;-90
2023/12/29 15:16:40;;;;;;;10.88;9.02;;;;;;;;;;6186097;23;20033;-86
2023/12/29 15:19:08;;;;;;;10.73;9.00;;;;;;;;;;6184771;23;20012;-87
2023/12/29 15:21:33;;;;;;;11.50;8.50;;;;;;;;;;6186698;23;20088;-88
2023/12/29 15:23:59;;;;;;;11.23;8.25;;;;;;;;;;6185323;23;20095;-87
2023/12/29 15:26:24;;;;;;;12.35;9.38;;;;;;;;;;6186651;23;20008;-88
2023/12/29 15:28:51;;;;;;;11.45;8.88;;;;;;;;;;6186245;23;20475;-85
2023/12/29 15:31:18;;;;;;;12.95;8.90;;;;;;;;;;6185004;23;20029;-87
2023/12/29 15:33:43;;;;;;;12.35;9.13;;;;;;;;;;6186490;23;20007;-89
2023/12/29 15:36:14;;;;;;;11.88;9.82;;;;;;;;;;6185230;23;20095;-89
2023/12/29 15:38:40;;;;;;;12.55;8.98;;;;;;;;;;6185548;23;20008;-87
2023/12/29 15:41:05;;;;;;;12.43;8.55;;;;;;;;;;6186295;23;20009;-88
2023/12/29 15:43:30;;;;;;;10.30;8.70;;;;;;;;;;6184716;23;20435;-87
2023/12/29 15:45:56;;;;;;;14.45;9.05;;;;;;;;;;6186583;23;20028;-90
2023/12/29 15:48:21;;;;;;;12.82;8.82;;;;;;;;;;6185052;23;20067;-92
2023/12/29 15:50:47;;;;;;;13.43;9.93;;;;;;;;;;6185355;23;20009;-85
2023/12/29 15:53:12;;;;;;;12.80;9.00;;;;;;;;;;6186232;23;20437;-89
2023/12/29 15:55:38;;;;;;;12.23;9.32;;;;;;;;;;6186900;23;20011;-87
2023/12/29 15:58:04;;;;;;;13.82;9.18;;;;;;;;;;6184517;23;20015;-87
2023/12/29 16:00:29;;;;;;;12.02;8.70;;;;;;;;;;6184768;23;20012;-88
2023/12/29 16:02:55;;;;;;;15.10;9.93;;;;;;;;;;6184667;23;20005;-87
2023/12/29 16:05:20;;;;;;;17.15;11.93;;;;;;;;;;6184513;23;20025;-87
2023/12/29 16:07:46;;;;;;;54.38;35.75;;;;;;;;;;6184734;23;20009;-88
2023/12/29 16:10:11;;;;;;;48.25;30.17;;;;;;;;;;6185232;23;20009;-88
2023/12/29 16:12:37;;;;;;;23.60;16.80;;;;;;;;;;6186139;23;20088;-88
2023/12/29 16:15:03;;;;;;;22.63;18.17;;;;;;;;;;6186949;23;20001;-87
2023/12/29 16:17:29;;;;;;;21.35;19.05;;;;;;;;;;6185123;23;20013;-87
2023/12/29 16:19:54;;;;;;;15.57;12.38;;;;;;;;;;6184775;23;20310;-88
2023/12/29 16:22:20;;;;;;;21.05;15.73;;;;;;;;;;6184681;23;20056;-87
2023/12/29 16:24:47;;;;;;;20.45;13.88;;;;;;;;;;6186140;23;20135;-89
2023/12/29 16:27:13;;;;;;;14.82;11.30;;;;;;;;;;6187631;23;20005;-89
2023/12/29 16:29:40;;;;;;;14.85;9.05;;;;;;;;;;6187795;23;20079;-88
2023/12/29 16:32:05;;;;;;;11.10;8.90;;;;;;;;;;6186722;23;20013;-88
2023/12/29 16:34:31;;;;;;;14.30;9.20;;;;;;;;;;6187931;23;20060;-88
2023/12/29 16:37:00;;;;;;;12.00;8.82;;;;;;;;;;6186576;23;20005;-88
2023/12/29 16:39:26;;;;;;;13.43;8.77;;;;;;;;;;6186093;23;20200;-86
2023/12/29 16:41:51;;;;;;;18.40;12.63;;;;;;;;;;6185973;23;20009;-86
2023/12/29 16:44:17;;;;;;;36.25;24.30;;;;;;;;;;6185867;23;20016;-85
2023/12/29 16:46:43;;;;;;;48.55;33.05;;;;;;;;;;6185895;23;20005;-85
2023/12/29 16:49:08;;;;;;;30.85;21.48;;;;;;;;;;6185655;23;20005;-85
2023/12/29 16:51:34;;;;;;;27.33;18.35;;;;;;;;;;6187393;23;20005;-84
2023/12/29 16:54:01;;;;;;;34.90;23.83;;;;;;;;;;6187254;23;20032;-85
2023/12/29 16:56:27;;;;;;;29.63;20.95;;;;;;;;;;6185842;23;20005;-85
2023/12/29 16:59:00;;;;;;;22.75;17.48;;;;;;;;;;6187607;23;20451;-85
2023/12/29 17:01:26;;;;;;;16.33;11.45;;;;;;;;;;6187207;23;20024;-85
2023/12/29 17:03:51;;;;;;;18.00;13.30;;;;;;;;;;6185997;23;20001;-85
2023/12/29 17:06:17;;;;;;;17.67;12.43;;;;;;;;;;6187311;23;20001;-85
2023/12/29 17:08:42;;;;;;;16.17;11.98;;;;;;;;;;6187141;23;20092;-85
2023/12/29 17:11:08;;;;;;;14.70;11.15;;;;;;;;;;6187301;23;20001;-85
2023/12/29 17:13:35;;;;;;;15.82;11.07;;;;;;;;;;6186976;23;20067;-85
2023/12/29 17:16:03;;;;;;;14.10;10.15;;;;;;;;;;6187728;23;20007;-85
2023/12/29 17:18:29;;;;;;;13.88;10.60;;;;;;;;;;6185272;23;20338;-88
2023/12/29 17:20:55;;;;;;;13.18;10.07;;;;;;;;;;6188681;23;20005;-88
2023/12/29 17:23:20;;;;;;;14.90;9.98;;;;;;;;;;6187886;23;19997;-86
2023/12/29 17:25:45;;;;;;;14.15;10.77;;;;;;;;;;6186453;23;20344;-86
2023/12/29 17:28:11;;;;;;;15.07;10.50;;;;;;;;;;6186963;23;20013;-86
2023/12/29 17:30:36;;;;;;;15.63;10.95;;;;;;;;;;6187060;23;20009;-89
2023/12/29 17:33:02;;;;;;;19.25;12.57;;;;;;;;;;6186281;23;20005;-85
2023/12/29 17:35:27;;;;;;;15.07;11.50;;;;;;;;;;6186603;23;20005;-87
2023/12/29 17:37:53;;;;;;;18.83;12.88;;;;;;;;;;6162476;23;20012;-85
2023/12/29 17:40:18;;;;;;;19.25;12.95;;;;;;;;;;6186022;23;20320;-87
2023/12/29 17:42:43;;;;;;;21.92;13.82;;;;;;;;;;6186004;23;20005;-88
2023/12/29 17:45:09;;;;;;;18.30;13.82;;;;;;;;;;6186891;23;20005;-91
2023/12/29 17:47:35;;;;;;;28.45;18.77;;;;;;;;;;6187836;23;20008;-88
2023/12/29 17:50:01;;;;;;;25.25;17.10;;;;;;;;;;6186830;23;20020;-89
2023/12/29 17:52:26;;;;;;;23.17;15.38;;;;;;;;;;6186733;23;20008;-88
2023/12/29 17:54:52;;;;;;;23.40;16.10;;;;;;;;;;6185677;23;20336;-88
2023/12/29 17:57:17;;;;;;;23.75;16.20;;;;;;;;;;6187764;23;20079;-89
2023/12/29 17:59:43;;;;;;;23.73;15.85;;;;;;;;;;6186048;23;20429;-90
2023/12/29 18:02:08;;;;;;;25.80;16.38;;;;;;;;;;6187185;23;20033;-90
2023/12/29 18:04:34;;;;;;;26.70;17.10;;;;;;;;;;6186250;23;20012;-89
2023/12/29 18:06:59;;;;;;;26.67;16.33;;;;;;;;;;6185785;23;20451;-87
2023/12/29 18:09:25;;;;;;;25.95;16.45;;;;;;;;;;6187195;23;20001;-86
2023/12/29 18:11:51;;;;;;;25.15;16.75;;;;;;;;;;6185504;23;20360;-88
2023/12/29 18:14:16;;;;;;;22.83;15.07;;;;;;;;;;6185429;23;20013;-89
2023/12/29 18:16:42;;;;;;;21.50;14.63;;;;;;;;;;6185677;23;20013;-88
2023/12/29 18:19:07;;;;;;;23.75;16.13;;;;;;;;;;6187267;23;20071;-88
2023/12/29 18:21:34;;;;;;;25.00;16.00;;;;;;;;;;6186228;23;20036;-89
2023/12/29 18:24:00;;;;;;;31.50;18.02;;;;;;;;;;6185997;23;20032;-88
2023/12/29 18:26:25;;;;;;;27.55;17.20;;;;;;;;;;6187363;23;20389;-88
2023/12/29 18:28:51;;;;;;;26.75;16.50;;;;;;;;;;6186956;23;20092;-87
2023/12/29 18:31:19;;;;;;;22.30;15.57;;;;;;;;;;6189635;23;20013;-89
2023/12/29 18:33:45;;;;;;;22.75;15.85;;;;;;;;;;6191608;23;20028;-88
2023/12/29 18:36:11;;;;;;;22.50;16.23;;;;;;;;;;6194443;23;20013;-89
2023/12/29 18:38:36;;;;;;;29.23;18.08;;;;;;;;;;6192062;23;20009;-88
2023/12/29 18:41:09;;;;;;;23.65;15.88;;;;;;;;;;6193768;23;20529;-89
2023/12/29 18:43:35;;;;;;;20.85;16.42;;;;;;;;;;6194146;23;20055;-89
2023/12/29 18:46:04;;;;;;;22.98;16.50;;;;;;;;;;6192762;23;20005;-87
2023/12/29 18:48:30;;;;;;;23.73;16.20;;;;;;;;;;6188979;23;20012;-87
2023/12/29 18:50:55;;;;;;;21.98;15.65;;;;;;;;;;6190582;23;20012;-89
2023/12/29 18:53:20;;;;;;;25.17;16.58;;;;;;;;;;6186731;23;20016;-89
2023/12/29 18:55:46;;;;;;;24.08;16.92;;;;;;;;;;6188272;23;20036;-89
2023/12/29 18:58:11;;;;;;;23.88;16.88;;;;;;;;;;6187061;23;20072;-88
2023/12/29 19:00:37;;;;;;;30.30;20.63;;;;;;;;;;6185889;23;20019;-85
2023/12/29 19:03:03;;;;;;;24.30;17.52;;;;;;;;;;6185863;23;20005;-88
2023/12/29 19:05:28;;;;;;;24.55;17.88;;;;;;;;;;6189560;23;20068;-89
2023/12/29 19:07:55;;;;;;;26.70;16.63;;;;;;;;;;6186956;23;20012;-89
2023/12/29 19:10:20;;;;;;;26.58;17.50;;;;;;;;;;6186846;23;20016;-90
2023/12/29 19:12:47;;;;;;;26.10;18.17;;;;;;;;;;6162604;23;20021;-87
2023/12/29 19:15:14;;;;;;;24.45;17.63;;;;;;;;;;6188474;23;20009;-86
2023/12/29 19:17:40;;;;;;;24.85;18.33;;;;;;;;;;6186309;23;20009;-88
2023/12/29 19:20:06;;;;;;;26.77;18.58;;;;;;;;;;6186506;23;20104;-86
2023/12/29 19:22:31;;;;;;;29.15;18.85;;;;;;;;;;6186673;23;20005;-89
2023/12/29 19:24:57;;;;;;;27.38;19.25;;;;;;;;;;6186944;23;20083;-89
2023/12/29 19:27:23;;;;;;;27.30;19.52;;;;;;;;;;6187050;23;20329;-88
2023/12/29 19:29:48;;;;;;;32.45;19.30;;;;;;;;;;6190255;23;20484;-89
2023/12/29 19:32:14;;;;;;;31.58;19.05;;;;;;;;;;6190251;23;20012;-92
2023/12/29 19:34:42;;;;;;;28.77;19.55;;;;;;;;;;6191486;23;19997;-88
2023/12/29 19:37:08;;;;;;;29.48;18.73;;;;;;;;;;6190139;23;20009;-88
2023/12/29 19:39:33;;;;;;;30.27;18.27;;;;;;;;;;6188443;23;20353;-88
2023/12/29 19:41:58;;;;;;;25.77;18.90;;;;;;;;;;6187129;23;20400;-90
2023/12/29 19:44:24;;;;;;;26.33;19.10;;;;;;;;;;6185669;23;20083;-90
2023/12/29 19:46:49;;;;;;;30.83;20.98;;;;;;;;;;6185718;23;20023;-90
2023/12/29 19:49:15;;;;;;;27.98;17.70;;;;;;;;;;6185596;23;20401;-90
2023/12/29 19:51:40;;;;;;;26.13;18.67;;;;;;;;;;6185619;23;20417;-87
2023/12/29 19:54:06;;;;;;;30.35;19.13;;;;;;;;;;6185586;23;20001;-90
2023/12/29 19:56:31;;;;;;;25.92;17.60;;;;;;;;;;6187818;23;20052;-89
2023/12/29 19:58:57;;;;;;;26.38;18.23;;;;;;;;;;6185365;23;20332;-90
2023/12/29 20:01:23;;;;;;;29.13;18.63;;;;;;;;;;6184921;23;20043;-89
2023/12/29 20:03:49;;;;;;;26.90;18.30;;;;;;;;;;6185009;23;20005;-88
2023/12/29 20:06:24;;;;;;;29.52;18.20;;;;;;;;;;6185270;23;20015;-88
2023/12/29 20:08:51;;;;;;;42.42;27.67;;;;;;;;;;6185634;23;20013;-89
2023/12/29 20:11:17;;;;;;;34.28;22.02;;;;;;;;;;6185505;23;20005;-89
2023/12/29 20:13:43;;;;;;;27.05;18.02;;;;;;;;;;6185229;23;20017;-89
2023/12/29 20:16:08;;;;;;;20.92;15.10;;;;;;;;;;6187097;23;20374;-88
2023/12/29 20:18:35;;;;;;;22.38;15.95;;;;;;;;;;6185156;23;20016;-89
2023/12/29 20:21:04;;;;;;;22.20;15.60;;;;;;;;;;6184982;23;20012;-90
2023/12/29 20:23:30;;;;;;;25.38;15.73;;;;;;;;;;6185516;23;20091;-88
2023/12/29 20:25:55;;;;;;;22.65;16.42;;;;;;;;;;6185689;23;20001;-89
2023/12/29 20:28:21;;;;;;;23.90;14.93;;;;;;;;;;6186077;23;20028;-89
2023/12/29 20:30:47;;;;;;;20.55;14.75;;;;;;;;;;6184406;23;20016;-88
2023/12/29 20:33:12;;;;;;;24.23;15.27;;;;;;;;;;6184806;23;20483;-89
2023/12/29 20:35:41;;;;;;;22.67;15.30;;;;;;;;;;6184727;23;20005;-88
2023/12/29 20:38:06;;;;;;;22.23;15.15;;;;;;;;;;6184588;23;20431;-88
2023/12/29 20:40:32;;;;;;;22.75;14.20;;;;;;;;;;6184592;23;20012;-89
2023/12/29 20:42:57;;;;;;;21.95;14.00;;;;;;;;;;6186308;23;20027;-90
2023/12/29 20:45:23;;;;;;;16.75;12.02;;;;;;;;;;6184968;23;20013;-89
2023/12/29 20:47:48;;;;;;;19.77;12.73;;;;;;;;;;6186094;23;20003;-89
2023/12/29 20:50:14;;;;;;;19.75;12.88;;;;;;;;;;6185119;23;20321;-90
2023/12/29 20:52:39;;;;;;;19.50;13.88;;;;;;;;;;6185138;23;20005;-89
2023/12/29 20:55:05;;;;;;;21.27;14.65;;;;;;;;;;6185054;23;20016;-89
2023/12/29 20:57:31;;;;;;;26.90;17.33;;;;;;;;;;6185043;23;20005;-90
2023/12/29 20:59:58;;;;;;;23.27;15.13;;;;;;;;;;6184684;23;20005;-89
2023/12/29 21:02:25;;;;;;;21.23;14.07;;;;;;;;;;6185034;23;20072;-89
2023/12/29 21:04:50;;;;;;;20.85;14.13;;;;;;;;;;6184704;23;20008;-90
2023/12/29 21:07:16;;;;;;;19.08;13.70;;;;;;;;;;6186536;23;20005;-88
2023/12/29 21:09:41;;;;;;;18.92;13.35;;;;;;;;;;6184481;23;20099;-89
2023/12/29 21:12:10;;;;;;;20.35;13.43;;;;;;;;;;6184826;23;20322;-89
2023/12/29 21:14:42;;;;;;;21.35;14.38;;;;;;;;;;6185730;23;20444;-90
2023/12/29 21:17:10;;;;;;;21.58;13.68;;;;;;;;;;6185893;23;20012;-90
2023/12/29 21:19:38;;;;;;;20.80;14.35;;;;;;;;;;6186457;23;20064;-90
2023/12/29 21:22:03;;;;;;;21.15;12.88;;;;;;;;;;6186178;23;20035;-89
2023/12/29 21:24:29;;;;;;;21.48;14.25;;;;;;;;;;6186469;23;19998;-90
2023/12/29 21:26:54;;;;;;;17.63;13.18;;;;;;;;;;6186619;23;20005;-89
2023/12/29 21:29:20;;;;;;;18.88;13.65;;;;;;;;;;6186406;23;20001;-89
2023/12/29 21:31:45;;;;;;;19.88;13.70;;;;;;;;;;6186566;23;20005;-89
2023/12/29 21:34:12;;;;;;;20.98;12.85;;;;;;;;;;6186174;23;20013;-89
2023/12/29 21:36:41;;;;;;;19.02;13.25;;;;;;;;;;6186344;23;20040;-89
2023/12/29 21:39:07;;;;;;;17.83;12.40;;;;;;;;;;6186298;23;20005;-90
2023/12/29 21:41:35;;;;;;;17.95;12.25;;;;;;;;;;6186296;23;20016;-90
2023/12/29 21:44:02;;;;;;;18.88;13.07;;;;;;;;;;6186174;23;20088;-89
2023/12/29 21:46:28;;;;;;;22.58;13.70;;;;;;;;;;6186033;23;20310;-90
2023/12/29 21:48:56;;;;;;;20.27;13.25;;;;;;;;;;6185897;23;20009;-93
2023/12/29 21:51:26;;;;;;;22.38;14.80;;;;;;;;;;6185955;23;20013;-90
2023/12/29 21:53:51;;;;;;;25.20;15.25;;;;;;;;;;6186022;23;20043;-90
2023/12/29 21:56:17;;;;;;;23.73;16.05;;;;;;;;;;6185651;23;20336;-89
2023/12/29 21:58:44;;;;;;;30.88;19.25;;;;;;;;;;6185479;23;20075;-87
2023/12/29 22:01:29;;;;;;;31.13;19.25;;;;;;;;;;6184568;23;20005;-86
2023/12/29 22:03:57;;;;;;;53.17;29.83;;;;;;;;;;6185306;23;20314;-85
2023/12/29 22:06:23;;;;;;;45.55;27.63;;;;;;;;;;6185011;23;20128;-86
2023/12/29 22:08:49;;;;;;;42.33;28.15;;;;;;;;;;6186325;23;20386;-87
2023/12/29 22:11:16;;;;;;;36.05;23.83;;;;;;;;;;6186548;23;20029;-89
2023/12/29 22:13:41;;;;;;;40.78;24.75;;;;;;;;;;6186862;23;20017;-88
2023/12/29 22:16:08;;;;;;;39.45;24.05;;;;;;;;;;6186939;23;20001;-89
2023/12/29 22:18:33;;;;;;;31.23;20.73;;;;;;;;;;6186947;23;20001;-86
2023/12/29 22:20:58;;;;;;;34.95;21.95;;;;;;;;;;6186651;23;20074;-84
2023/12/29 22:23:24;;;;;;;30.10;19.30;;;;;;;;;;6186419;23;20058;-87
2023/12/29 22:25:49;;;;;;;30.67;19.80;;;;;;;;;;6186335;23;20474;-85
2023/12/29 22:28:15;;;;;;;30.52;20.05;;;;;;;;;;6186594;23;20009;-85
2023/12/29 22:30:40;;;;;;;35.30;23.25;;;;;;;;;;6186235;23;20012;-85
2023/12/29 22:33:06;;;;;;;43.42;30.85;;;;;;;;;;6185080;23;20032;-85
2023/12/29 22:35:31;;;;;;;31.58;20.48;;;;;;;;;;6184560;23;20024;-85
2023/12/29 22:37:57;;;;;;;23.20;15.50;;;;;;;;;;6184833;23;20012;-85
2023/12/29 22:40:23;;;;;;;21.05;14.50;;;;;;;;;;6184803;23;20013;-86
2023/12/29 22:42:48;;;;;;;21.75;14.25;;;;;;;;;;6184930;23;20005;-86
2023/12/29 22:45:14;;;;;;;21.27;14.35;;;;;;;;;;6186312;23;20080;-85
2023/12/29 22:47:40;;;;;;;24.40;15.88;;;;;;;;;;6184732;23;20405;-86
2023/12/29 22:50:06;;;;;;;21.75;14.15;;;;;;;;;;6184776;23;20432;-86
2023/12/29 22:52:32;;;;;;;24.23;15.10;;;;;;;;;;6159909;23;20432;-86
2023/12/29 22:55:00;;;;;;;23.95;14.75;;;;;;;;;;6186853;23;20008;-88
